Time;durP1;ratioP1;P1;durP2;ratioP2;P2;SDS_P1;SDS_P2;PMS_P1;PMS_P2;Temp;Humidity;BMP_temperature;BMP_pressure;BME280_temperature;BME280_humidity;BME280_pressure;Samples;Min_cycle;Max_cycle;Signal;HPM_P1;HPM_P2
2021/10/07 00:01:43;;;;;;;;;;;10.50;1.00;;;;;;5048711;28;19908;-66
2021/10/07 00:04:08;;;;;;;;;;;10.50;1.00;;;;;;5049137;28;20246;-66
2021/10/07 00:06:34;;;;;;;;;;;10.40;1.00;;;;;;5050145;28;20366;-66
2021/10/07 00:08:59;;;;;;;;;;;10.40;1.00;;;;;;5050482;28;19967;-66
2021/10/07 00:11:25;;;;;;;;;;;10.40;1.00;;;;;;5049832;28;19909;-66
2021/10/07 00:13:50;;;;;;;;;;;10.40;1.00;;;;;;5049136;28;20012;-67
2021/10/07 00:16:16;;;;;;;;;;;10.40;1.00;;;;;;5049493;28;20011;-66
2021/10/07 00:18:41;;;;;;;;;;;10.40;1.00;;;;;;5049978;28;19908;-66
2021/10/07 00:21:07;;;;;;;;;;;10.40;1.00;;;;;;5049971;28;19913;-66
2021/10/07 00:23:39;;;;;;;;;;;10.40;1.00;;;;;;5049754;28;20211;-66
2021/10/07 00:26:05;;;;;;;;;;;10.50;1.00;;;;;;5049636;28;19912;-66
2021/10/07 00:28:32;;;;;;;;;;;10.60;1.00;;;;;;5059715;28;19919;-67
2021/10/07 00:31:00;;;;;;;;;;;10.60;1.00;;;;;;5069021;28;19989;-66
2021/10/07 00:33:41;;;;;;;;;;;10.60;1.00;;;;;;5068719;28;20063;-66
2021/10/07 00:36:35;;;;;;;;;;;10.60;1.00;;;;;;5069543;28;19990;-67
2021/10/07 00:39:04;;;;;;;;;;;10.60;1.00;;;;;;5029968;28;19924;-67
2021/10/07 00:41:38;;;;;;;;;;;10.70;1.00;;;;;;5029503;28;19932;-67
2021/10/07 00:44:05;;;;;;;;;;;10.70;1.00;;;;;;5028802;28;20013;-66
2021/10/07 00:46:31;;;;;;;;;;;10.70;1.00;;;;;;5029163;28;19987;-67
2021/10/07 00:48:56;;;;;;;;;;;10.70;1.00;;;;;;5029286;28;19917;-67
2021/10/07 00:51:22;;;;;;;;;;;10.60;1.00;;;;;;5029957;28;20393;-67
2021/10/07 00:53:47;;;;;;;;;;;10.60;1.00;;;;;;5028999;28;19916;-66
2021/10/07 00:56:18;;;;;;;;;;;10.50;1.00;;;;;;5029200;28;19996;-66
2021/10/07 00:58:45;;;;;;;;;;;10.50;1.00;;;;;;5029083;28;19913;-66
2021/10/07 01:01:10;;;;;;;;;;;10.50;1.00;;;;;;5028699;28;19995;-66
2021/10/07 01:03:36;;;;;;;;;;;10.50;1.00;;;;;;5028304;28;20277;-67
2021/10/07 01:06:01;;;;;;;;;;;10.40;1.00;;;;;;5056731;28;19992;-66
2021/10/07 01:08:27;;;;;;;;;;;10.40;1.00;;;;;;5064946;28;19924;-66
2021/10/07 01:10:53;;;;;;;;;;;10.40;1.00;;;;;;5068588;28;20070;-66
2021/10/07 01:13:18;;;;;;;;;;;10.40;1.00;;;;;;5068424;28;19920;-66
2021/10/07 01:15:44;;;;;;;;;;;10.40;1.00;;;;;;5068753;28;19916;-66
2021/10/07 01:18:09;;;;;;;;;;;10.40;1.00;;;;;;5068399;28;19912;-66
2021/10/07 01:20:37;;;;;;;;;;;10.40;1.00;;;;;;5068519;28;19912;-66
2021/10/07 01:23:02;;;;;;;;;;;10.40;1.00;;;;;;5068609;28;19916;-66
2021/10/07 01:25:31;;;;;;;;;;;10.40;1.00;;;;;;5050088;28;19909;-66
2021/10/07 01:27:57;;;;;;;;;;;10.40;1.00;;;;;;5054920;28;19912;-65
2021/10/07 01:30:22;;;;;;;;;;;10.40;1.00;;;;;;5068433;28;19991;-64
2021/10/07 01:32:48;;;;;;;;;;;10.40;1.00;;;;;;5067320;28;19909;-64
2021/10/07 01:35:13;;;;;;;;;;;10.40;1.00;;;;;;5068975;28;19909;-66
2021/10/07 01:37:39;;;;;;;;;;;10.40;1.00;;;;;;5057835;28;19912;-64
2021/10/07 01:40:05;;;;;;;;;;;10.40;1.00;;;;;;5048786;28;19909;-65
2021/10/07 01:42:31;;;;;;;;;;;10.40;1.00;;;;;;5048737;28;19909;-67
2021/10/07 01:44:56;;;;;;;;;;;10.50;1.00;;;;;;5048605;28;19967;-66
2021/10/07 01:47:22;;;;;;;;;;;10.50;1.00;;;;;;5048551;28;20470;-66
2021/10/07 01:49:47;;;;;;;;;;;10.50;1.00;;;;;;5048911;28;19920;-66
2021/10/07 01:52:13;;;;;;;;;;;10.50;1.00;;;;;;5048663;28;19962;-66
2021/10/07 01:54:38;;;;;;;;;;;10.50;1.00;;;;;;5051449;28;19913;-65
2021/10/07 01:57:04;;;;;;;;;;;10.50;1.00;;;;;;5052781;28;19920;-65
2021/10/07 01:59:29;;;;;;;;;;;10.50;1.00;;;;;;5052476;28;19970;-65
2021/10/07 02:01:55;;;;;;;;;;;10.50;1.00;;;;;;5051707;28;20083;-65
2021/10/07 02:04:20;;;;;;;;;;;10.50;1.00;;;;;;5052068;28;20008;-64
2021/10/07 02:06:46;;;;;;;;;;;10.50;1.00;;;;;;5052660;28;19913;-66
2021/10/07 02:09:12;;;;;;;;;;;10.40;1.00;;;;;;5051768;28;19978;-65
2021/10/07 02:11:37;;;;;;;;;;;10.40;1.00;;;;;;5053569;28;19909;-66
2021/10/07 02:14:03;;;;;;;;;;;10.40;1.00;;;;;;5052570;28;20436;-66
2021/10/07 02:16:29;;;;;;;;;;;10.40;1.00;;;;;;5053333;28;19920;-64
2021/10/07 02:18:55;;;;;;;;;;;10.40;1.00;;;;;;5053648;28;19927;-66
2021/10/07 02:21:20;;;;;;;;;;;10.40;1.00;;;;;;5053885;28;19916;-66
2021/10/07 02:23:46;;;;;;;;;;;10.40;1.00;;;;;;5051916;28;19920;-66
2021/10/07 02:26:11;;;;;;;;;;;10.40;1.00;;;;;;5051989;28;20619;-66
2021/10/07 02:28:37;;;;;;;;;;;10.40;1.00;;;;;;5060015;28;19923;-67
2021/10/07 02:31:02;;;;;;;;;;;10.40;1.00;;;;;;5064056;28;20003;-66
2021/10/07 02:33:28;;;;;;;;;;;10.40;1.00;;;;;;5071152;28;20373;-67
2021/10/07 02:35:53;;;;;;;;;;;10.30;1.00;;;;;;5072152;28;19912;-66
2021/10/07 02:38:19;;;;;;;;;;;10.40;1.00;;;;;;5055345;28;19986;-66
2021/10/07 02:40:45;;;;;;;;;;;10.40;1.00;;;;;;5051807;28;19909;-67
2021/10/07 02:43:10;;;;;;;;;;;10.40;1.00;;;;;;5051139;28;19919;-66
2021/10/07 02:45:36;;;;;;;;;;;10.30;1.00;;;;;;5052019;28;19915;-66
2021/10/07 02:48:01;;;;;;;;;;;10.40;1.00;;;;;;5051171;28;19923;-67
2021/10/07 02:50:27;;;;;;;;;;;10.40;1.00;;;;;;5052080;28;19963;-66
2021/10/07 02:52:56;;;;;;;;;;;10.40;1.00;;;;;;5051354;28;19909;-67
2021/10/07 02:55:21;;;;;;;;;;;10.30;1.00;;;;;;5051618;28;19920;-66
2021/10/07 02:57:47;;;;;;;;;;;10.40;1.00;;;;;;5052821;28;20069;-66
2021/10/07 03:00:13;;;;;;;;;;;10.40;1.00;;;;;;5052546;28;19913;-66
2021/10/07 03:02:39;;;;;;;;;;;10.40;1.00;;;;;;5052047;28;19912;-66
2021/10/07 03:05:05;;;;;;;;;;;10.40;1.00;;;;;;5051416;28;20380;-66
2021/10/07 03:07:30;;;;;;;;;;;10.30;1.00;;;;;;5053757;28;19913;-66
2021/10/07 03:09:56;;;;;;;;;;;10.40;1.00;;;;;;5052398;28;19920;-66
2021/10/07 03:12:22;;;;;;;;;;;10.30;1.00;;;;;;5052044;28;19915;-66
2021/10/07 03:14:47;;;;;;;;;;;10.30;1.00;;;;;;5051550;28;19946;-66
2021/10/07 03:17:13;;;;;;;;;;;10.30;1.00;;;;;;5051469;28;20301;-66
2021/10/07 03:19:38;;;;;;;;;;;10.30;1.00;;;;;;5050617;28;19913;-66
2021/10/07 03:22:05;;;;;;;;;;;10.30;1.00;;;;;;5050738;28;20436;-66
2021/10/07 03:24:30;;;;;;;;;;;10.20;1.00;;;;;;5050828;28;19917;-65
2021/10/07 03:26:56;;;;;;;;;;;10.30;1.00;;;;;;5051674;28;19955;-65
2021/10/07 03:29:22;;;;;;;;;;;10.20;1.00;;;;;;5067797;28;19915;-64
2021/10/07 03:31:47;;;;;;;;;;;10.10;1.00;;;;;;5070362;28;19923;-66
2021/10/07 03:34:13;;;;;;;;;;;10.10;1.00;;;;;;5070790;28;20379;-66
2021/10/07 03:36:39;;;;;;;;;;;10.20;1.00;;;;;;5068377;28;19987;-66
2021/10/07 03:39:05;;;;;;;;;;;10.20;1.00;;;;;;5050945;28;19974;-64
2021/10/07 03:41:31;;;;;;;;;;;10.30;1.00;;;;;;5050749;28;19913;-65
2021/10/07 03:43:57;;;;;;;;;;;10.20;1.00;;;;;;5050096;28;19908;-65
2021/10/07 03:46:22;;;;;;;;;;;10.30;1.00;;;;;;5050594;28;19928;-65
2021/10/07 03:48:48;;;;;;;;;;;10.30;1.00;;;;;;5050771;28;19978;-65
2021/10/07 03:51:13;;;;;;;;;;;10.30;1.00;;;;;;5050843;28;20338;-65
2021/10/07 03:53:39;;;;;;;;;;;10.30;1.00;;;;;;5050013;28;20469;-65
2021/10/07 03:56:04;;;;;;;;;;;10.30;1.00;;;;;;5050598;28;19909;-65
2021/10/07 03:58:30;;;;;;;;;;;10.30;1.00;;;;;;5050849;28;19909;-65
2021/10/07 04:00:55;;;;;;;;;;;10.20;1.00;;;;;;5050710;28;20046;-65
2021/10/07 04:03:21;;;;;;;;;;;10.20;1.00;;;;;;5049525;28;19920;-65
2021/10/07 04:05:47;;;;;;;;;;;10.20;1.00;;;;;;5059737;28;19909;-66
2021/10/07 04:08:13;;;;;;;;;;;10.30;1.00;;;;;;5050338;28;19912;-64
2021/10/07 04:10:39;;;;;;;;;;;10.20;1.00;;;;;;5050287;28;20332;-67
2021/10/07 04:13:04;;;;;;;;;;;10.30;1.00;;;;;;5049787;28;19909;-67
2021/10/07 04:15:30;;;;;;;;;;;10.30;1.00;;;;;;5050092;28;19909;-67
2021/10/07 04:17:55;;;;;;;;;;;10.20;1.00;;;;;;5048935;28;19909;-68
2021/10/07 04:20:21;;;;;;;;;;;10.20;1.00;;;;;;5050780;28;19961;-66
2021/10/07 04:22:46;;;;;;;;;;;10.20;1.00;;;;;;5050184;28;20344;-67
2021/10/07 04:25:12;;;;;;;;;;;10.10;1.00;;;;;;5050249;28;19948;-67
2021/10/07 04:27:38;;;;;;;;;;;10.10;1.00;;;;;;5047913;28;19923;-65
2021/10/07 04:30:04;;;;;;;;;;;10.20;1.00;;;;;;5062283;28;19995;-66
2021/10/07 04:32:30;;;;;;;;;;;10.20;1.00;;;;;;5065617;28;20484;-65
2021/10/07 04:34:55;;;;;;;;;;;10.20;1.00;;;;;;5069774;28;20004;-66
2021/10/07 04:37:21;;;;;;;;;;;10.20;1.00;;;;;;5061536;28;19941;-66
2021/10/07 04:39:46;;;;;;;;;;;10.20;1.00;;;;;;5049254;28;19913;-65
2021/10/07 04:42:12;;;;;;;;;;;10.20;1.00;;;;;;5045221;28;20001;-65
2021/10/07 04:44:37;;;;;;;;;;;10.30;1.00;;;;;;5039988;28;19916;-66
2021/10/07 04:47:03;;;;;;;;;;;10.30;1.00;;;;;;5041709;28;19913;-66
2021/10/07 04:49:28;;;;;;;;;;;10.20;1.00;;;;;;5032613;28;19913;-65
2021/10/07 04:51:54;;;;;;;;;;;10.30;1.00;;;;;;5026732;28;20373;-66
2021/10/07 04:54:19;;;;;;;;;;;10.20;1.00;;;;;;5026987;28;19910;-66
2021/10/07 04:56:45;;;;;;;;;;;10.20;1.00;;;;;;5027337;28;19914;-63
2021/10/07 04:59:10;;;;;;;;;;;10.20;1.00;;;;;;5037843;28;19944;-65
2021/10/07 05:01:36;;;;;;;;;;;10.30;1.00;;;;;;5034572;28;20658;-65
2021/10/07 05:04:03;;;;;;;;;;;10.30;1.00;;;;;;5040521;28;19919;-65
2021/10/07 05:06:29;;;;;;;;;;;10.20;1.00;;;;;;5053621;28;20512;-67
2021/10/07 05:08:55;;;;;;;;;;;10.10;1.00;;;;;;5042669;28;20010;-67
2021/10/07 05:11:20;;;;;;;;;;;10.10;1.00;;;;;;5026096;28;19960;-66
2021/10/07 05:13:46;;;;;;;;;;;10.00;1.00;;;;;;5032896;28;19940;-67
2021/10/07 05:16:11;;;;;;;;;;;10.00;1.00;;;;;;5034074;28;20297;-65
2021/10/07 05:18:37;;;;;;;;;;;9.90;1.00;;;;;;5037806;28;19921;-65
2021/10/07 05:21:02;;;;;;;;;;;9.90;1.00;;;;;;5046368;28;19913;-66
2021/10/07 05:23:29;;;;;;;;;;;9.90;1.00;;;;;;5046123;28;19988;-66
2021/10/07 05:25:55;;;;;;;;;;;9.80;1.00;;;;;;5042316;28;19913;-66
2021/10/07 05:28:20;;;;;;;;;;;9.80;1.00;;;;;;5038592;28;19940;-66
2021/10/07 05:30:45;;;;;;;;;;;9.80;1.00;;;;;;5044255;28;20564;-66
2021/10/07 05:33:11;;;;;;;;;;;9.80;1.00;;;;;;5045709;28;19912;-66
2021/10/07 05:35:36;;;;;;;;;;;9.80;1.00;;;;;;5045775;28;19931;-65
2021/10/07 05:38:02;;;;;;;;;;;9.80;1.00;;;;;;5047112;28;19935;-65
2021/10/07 05:40:28;;;;;;;;;;;9.90;1.00;;;;;;5052458;28;19935;-65
2021/10/07 05:42:53;;;;;;;;;;;9.90;1.00;;;;;;5055564;28;19919;-65
2021/10/07 05:45:18;;;;;;;;;;;10.00;1.00;;;;;;5065529;28;19923;-65
2021/10/07 05:47:44;;;;;;;;;;;10.00;1.00;;;;;;5066063;28;19984;-65
2021/10/07 05:50:10;;;;;;;;;;;10.10;1.00;;;;;;5065991;28;19936;-65
2021/10/07 05:52:36;;;;;;;;;;;10.20;1.00;;;;;;5065390;28;20300;-65
2021/10/07 05:55:02;;;;;;;;;;;10.20;1.00;;;;;;5066115;28;19958;-65
2021/10/07 05:57:28;;;;;;;;;;;10.30;1.00;;;;;;5066465;28;20066;-65
2021/10/07 05:59:53;;;;;;;;;;;10.40;1.00;;;;;;5053193;28;20000;-66
2021/10/07 06:02:19;;;;;;;;;;;10.40;1.00;;;;;;5034978;28;20464;-65
2021/10/07 06:04:44;;;;;;;;;;;10.50;1.00;;;;;;5034099;28;19924;-65
2021/10/07 06:07:10;;;;;;;;;;;10.50;1.00;;;;;;5034647;28;20450;-65
2021/10/07 06:09:35;;;;;;;;;;;10.60;1.00;;;;;;5035426;28;20003;-66
2021/10/07 06:12:01;;;;;;;;;;;10.60;1.00;;;;;;5033400;28;20373;-65
2021/10/07 06:14:26;;;;;;;;;;;10.70;1.00;;;;;;5034651;28;19963;-67
2021/10/07 06:16:55;;;;;;;;;;;10.80;1.00;;;;;;5034916;28;19909;-65
2021/10/07 06:19:23;;;;;;;;;;;10.80;1.00;;;;;;5033625;28;20389;-65
2021/10/07 06:21:52;;;;;;;;;;;10.90;1.00;;;;;;5034706;28;19931;-65
2021/10/07 06:24:18;;;;;;;;;;;10.90;1.00;;;;;;5033115;28;20071;-65
2021/10/07 06:26:43;;;;;;;;;;;10.90;1.00;;;;;;5034588;28;20059;-66
2021/10/07 06:29:09;;;;;;;;;;;11.00;1.00;;;;;;5057203;28;19990;-66
2021/10/07 06:31:35;;;;;;;;;;;11.20;1.00;;;;;;5058020;28;19928;-65
2021/10/07 06:34:01;;;;;;;;;;;11.40;1.00;;;;;;5027621;28;20343;-66
2021/10/07 06:36:26;;;;;;;;;;;11.60;1.00;;;;;;5029724;28;20393;-65
2021/10/07 06:38:52;;;;;;;;;;;12.10;1.00;;;;;;5048616;28;19921;-65
2021/10/07 06:41:17;;;;;;;;;;;12.40;1.00;;;;;;5056765;28;19913;-65
2021/10/07 06:43:43;;;;;;;;;;;12.70;99.90;;;;;;5063135;28;19909;-65
2021/10/07 06:46:09;;;;;;;;;;;13.20;1.00;;;;;;5071156;28;19912;-65
2021/10/07 06:48:34;;;;;;;;;;;13.50;1.00;;;;;;5070991;28;19913;-67
2021/10/07 06:51:01;;;;;;;;;;;13.60;1.00;;;;;;5071758;28;19909;-66
2021/10/07 06:53:26;;;;;;;;;;;13.70;1.00;;;;;;5071534;28;19909;-66
2021/10/07 06:55:52;;;;;;;;;;;13.70;1.00;;;;;;5071339;28;20022;-66
2021/10/07 06:58:18;;;;;;;;;;;14.10;1.00;;;;;;5071997;28;19916;-66
2021/10/07 07:00:44;;;;;;;;;;;14.50;1.00;;;;;;5071195;28;20329;-66
2021/10/07 07:03:10;;;;;;;;;;;15.30;99.90;;;;;;5070071;28;20254;-66
2021/10/07 07:05:36;;;;;;;;;;;17.60;1.00;;;;;;5071805;28;19908;-66
2021/10/07 07:08:01;;;;;;;;;;;20.40;99.90;;;;;;5071338;28;20276;-66
2021/10/07 07:10:26;;;;;;;;;;;21.60;99.90;;;;;;5071329;28;19908;-66
2021/10/07 07:12:52;;;;;;;;;;;21.40;99.90;;;;;;5070542;28;19908;-67
2021/10/07 07:15:18;;;;;;;;;;;20.60;99.90;;;;;;5071481;28;19913;-67
2021/10/07 07:17:44;;;;;;;;;;;19.30;99.90;;;;;;5070716;28;20264;-67
2021/10/07 07:20:10;;;;;;;;;;;18.20;99.90;;;;;;5071114;28;19912;-66
2021/10/07 07:22:36;;;;;;;;;;;17.30;99.90;;;;;;5070892;28;19908;-66
2021/10/07 07:25:01;;;;;;;;;;;16.60;99.90;;;;;;5055825;28;19919;-68
2021/10/07 07:27:27;;;;;;;;;;;16.30;99.90;;;;;;5052697;28;19992;-67
2021/10/07 07:29:53;;;;;;;;;;;16.10;99.90;;;;;;5070940;28;20003;-66
2021/10/07 07:32:18;;;;;;;;;;;15.70;99.90;;;;;;5069951;28;20024;-66
2021/10/07 07:34:44;;;;;;;;;;;15.40;99.90;;;;;;5070546;28;19931;-66
2021/10/07 07:37:09;;;;;;;;;;;15.40;99.90;;;;;;5063706;28;19909;-66
2021/10/07 07:39:35;;;;;;;;;;;15.20;99.90;;;;;;5050694;28;19913;-66
2021/10/07 07:42:01;;;;;;;;;;;14.80;1.00;;;;;;5050080;28;19909;-66
2021/10/07 07:44:26;;;;;;;;;;;14.60;1.00;;;;;;5050415;28;20019;-67
2021/10/07 07:46:52;;;;;;;;;;;14.30;1.00;;;;;;5050526;28;19909;-66
2021/10/07 07:49:17;;;;;;;;;;;14.10;1.00;;;;;;5050275;28;20397;-67
2021/10/07 07:51:43;;;;;;;;;;;14.00;1.00;;;;;;5050188;28;19909;-66
2021/10/07 07:54:08;;;;;;;;;;;13.90;99.90;;;;;;5050403;28;19924;-66
2021/10/07 07:56:34;;;;;;;;;;;13.90;99.90;;;;;;5050511;28;19959;-66
2021/10/07 07:58:59;;;;;;;;;;;14.10;99.90;;;;;;5050425;28;19909;-66
2021/10/07 08:01:25;;;;;;;;;;;14.20;99.90;;;;;;5050097;28;19925;-66
2021/10/07 08:03:51;;;;;;;;;;;14.10;99.90;;;;;;5057056;28;19917;-66
2021/10/07 08:06:16;;;;;;;;;;;14.10;99.90;;;;;;5063513;28;20003;-66
2021/10/07 08:08:42;;;;;;;;;;;14.20;99.90;;;;;;5074852;28;19956;-66
2021/10/07 08:11:07;;;;;;;;;;;14.30;99.90;;;;;;5070999;28;20328;-66
2021/10/07 08:13:33;;;;;;;;;;;14.90;99.90;;;;;;5070813;28;20011;-69
2021/10/07 08:15:59;;;;;;;;;;;17.50;1.00;;;;;;5069977;28;19923;-66
2021/10/07 08:18:24;;;;;;;;;;;21.90;99.90;;;;;;5070297;28;20045;-66
2021/10/07 08:20:52;;;;;;;;;;;25.50;99.90;;;;;;5070695;28;19909;-66
2021/10/07 08:23:22;;;;;;;;;;;30.00;99.90;;;;;;5068819;28;19946;-66
2021/10/07 08:25:47;;;;;;;;;;;34.00;99.90;;;;;;5591422;22;19972;-66
2021/10/07 08:28:13;;;;;;;;;;;36.50;99.90;;;;;;5056068;28;19971;-68
2021/10/07 08:30:38;;;;;;;;;;;39.20;99.90;;;;;;5069539;28;19908;-67
2021/10/07 08:33:04;;;;;;;;;;;40.30;99.90;;;;;;5068785;28;19940;-67
2021/10/07 08:35:30;;;;;;;;;;;37.90;99.90;;;;;;5069317;28;19912;-67
2021/10/07 08:37:55;;;;;;;;;;;32.30;99.90;;;;;;5056759;28;19931;-68
2021/10/07 08:40:21;;;;;;;;;;;29.80;99.90;;;;;;5048055;28;19991;-66
2021/10/07 08:46:27;;;;;;;;;;;34.60;99.90;;;;;;5015124;28;19928;-67
2021/10/07 08:48:52;;;;;;;;;;;36.70;99.90;;;;;;5025852;28;19963;-67
2021/10/07 08:51:18;;;;;;;;;;;36.60;99.90;;;;;;5029212;28;19913;-67
2021/10/07 08:53:44;;;;;;;;;;;36.70;99.90;;;;;;5029132;28;19912;-67
2021/10/07 08:56:09;;;;;;;;;;;37.00;99.90;;;;;;5029182;28;20309;-67
2021/10/07 08:58:35;;;;;;;;;;;35.80;99.90;;;;;;5029826;28;19909;-67
2021/10/07 09:01:00;;;;;;;;;;;34.80;99.90;;;;;;5028955;28;20008;-67
2021/10/07 09:03:26;;;;;;;;;;;36.30;96.80;;;;;;5028312;28;19948;-67
2021/10/07 09:06:08;;;;;;;;;;;36.80;91.80;;;;;;5028587;28;19909;-67
2021/10/07 09:08:43;;;;;;;;;;;37.00;82.70;;;;;;5029900;28;19913;-67
2021/10/07 09:11:09;;;;;;;;;;;30.90;67.80;;;;;;5028600;28;20340;-67
2021/10/07 09:13:35;;;;;;;;;;;30.90;73.80;;;;;;5028314;28;19956;-67
2021/10/07 09:16:01;;;;;;;;;;;31.60;69.50;;;;;;5028605;28;19948;-67
2021/10/07 09:18:27;;;;;;;;;;;33.90;63.40;;;;;;5028552;28;19967;-67
2021/10/07 09:20:54;;;;;;;;;;;29.80;57.00;;;;;;5028663;28;19921;-67
2021/10/07 09:23:31;;;;;;;;;;;30.00;59.80;;;;;;5029228;28;19941;-67
2021/10/07 09:26:07;;;;;;;;;;;28.20;55.00;;;;;;5048444;28;19920;-66
2021/10/07 09:28:49;;;;;;;;;;;24.30;53.30;;;;;;5059609;28;19935;-67
2021/10/07 09:31:15;;;;;;;;;;;21.50;52.60;;;;;;5068756;28;19974;-68
2021/10/07 09:33:44;;;;;;;;;;;20.20;56.00;;;;;;5068301;28;20320;-66
2021/10/07 09:36:12;;;;;;;;;;;19.30;59.10;;;;;;5068527;28;20377;-68
2021/10/07 09:38:37;;;;;;;;;;;19.30;66.70;;;;;;5049971;28;19919;-67
2021/10/07 09:41:10;;;;;;;;;;;18.90;71.70;;;;;;5046425;28;19909;-68
2021/10/07 09:43:47;;;;;;;;;;;18.60;78.10;;;;;;5059800;28;19908;-67
2021/10/07 09:46:12;;;;;;;;;;;18.60;81.80;;;;;;5068430;28;19909;-66
2021/10/07 09:48:39;;;;;;;;;;;18.20;85.00;;;;;;5068554;28;19958;-67
2021/10/07 09:51:11;;;;;;;;;;;19.50;92.90;;;;;;5067928;28;20263;-67
2021/10/07 09:53:36;;;;;;;;;;;20.80;95.70;;;;;;5068041;28;19916;-67
2021/10/07 09:56:02;;;;;;;;;;;20.90;95.40;;;;;;5067414;28;20314;-67
2021/10/07 09:58:27;;;;;;;;;;;19.80;93.50;;;;;;5068826;28;19909;-67
2021/10/07 10:00:54;;;;;;;;;;;19.00;95.40;;;;;;5068321;28;19908;-66
2021/10/07 10:03:21;;;;;;;;;;;18.40;95.00;;;;;;5067871;28;19932;-67
2021/10/07 10:05:47;;;;;;;;;;;17.50;96.90;;;;;;5069218;28;19908;-68
2021/10/07 10:08:14;;;;;;;;;;;17.10;99.90;;;;;;5068687;28;19961;-66
2021/10/07 10:10:42;;;;;;;;;;;17.10;99.90;;;;;;5068351;28;19909;-67
2021/10/07 10:13:08;;;;;;;;;;;17.40;99.90;;;;;;5068130;28;20037;-67
2021/10/07 10:15:35;;;;;;;;;;;17.60;99.90;;;;;;5071406;28;19991;-65
2021/10/07 10:18:10;;;;;;;;;;;17.50;99.90;;;;;;5072210;28;19919;-67
2021/10/07 10:20:37;;;;;;;;;;;17.50;99.90;;;;;;5072189;28;20391;-67
2021/10/07 10:23:06;;;;;;;;;;;17.20;99.90;;;;;;5071964;28;19999;-67
2021/10/07 10:25:49;;;;;;;;;;;17.00;99.90;;;;;;5053439;28;20019;-67
2021/10/07 10:28:15;;;;;;;;;;;16.60;99.90;;;;;;5060159;28;19916;-66
2021/10/07 10:30:46;;;;;;;;;;;16.40;99.90;;;;;;5072408;28;20043;-68
2021/10/07 10:33:29;;;;;;;;;;;16.30;99.90;;;;;;5071717;28;19909;-67
2021/10/07 10:35:54;;;;;;;;;;;16.30;99.90;;;;;;5072179;28;19909;-66
2021/10/07 10:38:20;;;;;;;;;;;16.40;99.90;;;;;;5071691;28;19915;-66
2021/10/07 10:40:46;;;;;;;;;;;16.70;99.90;;;;;;5064877;28;19932;-66
2021/10/07 10:43:17;;;;;;;;;;;16.90;99.90;;;;;;5065836;28;19908;-66
2021/10/07 10:45:46;;;;;;;;;;;17.00;99.90;;;;;;5051669;28;19908;-67
2021/10/07 10:48:12;;;;;;;;;;;17.40;99.90;;;;;;5051426;28;20385;-68
2021/10/07 10:50:38;;;;;;;;;;;17.50;99.90;;;;;;5049231;28;19913;-67
2021/10/07 10:53:20;;;;;;;;;;;17.50;99.90;;;;;;5051660;28;19991;-67
2021/10/07 10:55:45;;;;;;;;;;;17.20;99.90;;;;;;5051037;28;19909;-67
2021/10/07 10:58:11;;;;;;;;;;;17.20;99.90;;;;;;5051190;28;20284;-67
2021/10/07 11:00:39;;;;;;;;;;;17.30;99.90;;;;;;5051235;28;20334;-67
2021/10/07 11:03:08;;;;;;;;;;;17.60;99.90;;;;;;5050533;28;19980;-66
2021/10/07 11:05:38;;;;;;;;;;;17.60;99.90;;;;;;5051529;28;19913;-66
2021/10/07 11:08:16;;;;;;;;;;;17.30;99.90;;;;;;5033172;28;19913;-66
2021/10/07 11:10:41;;;;;;;;;;;17.20;99.90;;;;;;5034100;28;19923;-68
2021/10/07 11:13:27;;;;;;;;;;;17.30;99.90;;;;;;5062055;28;19913;-65
2021/10/07 11:15:56;;;;;;;;;;;17.30;99.90;;;;;;5062890;28;19920;-67
2021/10/07 11:18:22;;;;;;;;;;;17.40;99.90;;;;;;5062284;28;20678;-67
2021/10/07 11:20:55;;;;;;;;;;;17.60;99.90;;;;;;5053508;28;19913;-67
2021/10/07 11:23:21;;;;;;;;;;;17.40;99.90;;;;;;5060056;28;19912;-67
2021/10/07 11:25:48;;;;;;;;;;;17.00;99.90;;;;;;5049221;28;19927;-67
2021/10/07 11:28:14;;;;;;;;;;;17.10;99.90;;;;;;5057579;28;20074;-67
2021/10/07 11:30:41;;;;;;;;;;;17.00;99.90;;;;;;5070352;28;19931;-66
2021/10/07 11:33:07;;;;;;;;;;;16.80;99.90;;;;;;5069518;28;19934;-66
2021/10/07 11:35:34;;;;;;;;;;;16.90;99.90;;;;;;5070884;28;19913;-66
2021/10/07 11:37:59;;;;;;;;;;;16.90;99.90;;;;;;5077933;22;19925;-64
2021/10/07 11:40:26;;;;;;;;;;;16.90;99.90;;;;;;5044884;28;19917;-65
2021/10/07 11:42:52;;;;;;;;;;;16.60;99.90;;;;;;5028541;28;19936;-65
2021/10/07 11:45:17;;;;;;;;;;;16.70;99.90;;;;;;5029485;28;19913;-65
2021/10/07 11:47:43;;;;;;;;;;;16.80;99.90;;;;;;5028938;28;19933;-65
2021/10/07 11:50:09;;;;;;;;;;;16.90;99.90;;;;;;5029291;28;19910;-64
2021/10/07 11:52:36;;;;;;;;;;;17.00;99.90;;;;;;5027652;28;19913;-64
2021/10/07 11:55:02;;;;;;;;;;;16.80;99.90;;;;;;5029838;28;19952;-66
2021/10/07 11:57:28;;;;;;;;;;;16.50;99.90;;;;;;5032769;28;19970;-64
2021/10/07 11:59:53;;;;;;;;;;;15.90;99.90;;;;;;5041857;28;20348;-64
2021/10/07 12:02:19;;;;;;;;;;;15.60;99.90;;;;;;5045699;28;19940;-64
2021/10/07 12:04:44;;;;;;;;;;;15.60;99.90;;;;;;5043834;28;19921;-65
2021/10/07 12:07:14;;;;;;;;;;;15.70;99.90;;;;;;5042701;28;19943;-63
2021/10/07 12:09:43;;;;;;;;;;;15.90;99.90;;;;;;5039091;28;19916;-64
2021/10/07 12:12:09;;;;;;;;;;;16.00;99.90;;;;;;5038828;28;20026;-64
2021/10/07 12:14:34;;;;;;;;;;;16.20;99.90;;;;;;5037816;28;20099;-63
2021/10/07 12:17:00;;;;;;;;;;;16.60;99.90;;;;;;5039042;28;19956;-64
2021/10/07 12:19:27;;;;;;;;;;;16.70;99.90;;;;;;5039138;28;19909;-64
2021/10/07 12:21:56;;;;;;;;;;;16.50;99.90;;;;;;5036385;28;19916;-64
2021/10/07 12:24:25;;;;;;;;;;;16.40;99.90;;;;;;5040040;28;20431;-65
2021/10/07 12:26:51;;;;;;;;;;;16.50;99.90;;;;;;5036839;28;20346;-65
2021/10/07 12:29:17;;;;;;;;;;;16.80;99.90;;;;;;5042624;28;19912;-65
2021/10/07 12:31:53;;;;;;;;;;;16.80;99.90;;;;;;5038669;28;19928;-65
2021/10/07 12:34:19;;;;;;;;;;;16.90;99.90;;;;;;5038123;28;20027;-65
2021/10/07 12:36:49;;;;;;;;;;;17.10;99.90;;;;;;5039843;28;20028;-64
2021/10/07 12:39:23;;;;;;;;;;;16.90;99.90;;;;;;5038188;28;19921;-64
2021/10/07 12:41:50;;;;;;;;;;;17.00;99.90;;;;;;5036169;28;20010;-65
2021/10/07 12:44:19;;;;;;;;;;;17.20;99.90;;;;;;5049514;28;20303;-65
2021/10/07 12:46:46;;;;;;;;;;;17.10;99.90;;;;;;5049097;28;19999;-65
2021/10/07 12:49:12;;;;;;;;;;;17.20;99.90;;;;;;5048655;28;20345;-65
2021/10/07 12:51:42;;;;;;;;;;;17.30;99.90;;;;;;5049383;28;20350;-64
2021/10/07 12:54:12;;;;;;;;;;;17.10;99.90;;;;;;5048907;28;19909;-64
2021/10/07 12:56:40;;;;;;;;;;;17.00;99.90;;;;;;5048597;28;19913;-64
2021/10/07 12:59:05;;;;;;;;;;;17.10;99.90;;;;;;5048634;28;19913;-64
2021/10/07 13:01:37;;;;;;;;;;;17.20;99.90;;;;;;5048953;28;20047;-65
2021/10/07 13:04:13;;;;;;;;;;;17.10;99.90;;;;;;5047949;28;20020;-64
2021/10/07 13:06:40;;;;;;;;;;;16.70;99.90;;;;;;5048921;28;19951;-64
2021/10/07 13:09:06;;;;;;;;;;;16.50;99.90;;;;;;5048295;28;19913;-63
2021/10/07 13:11:32;;;;;;;;;;;16.50;99.90;;;;;;5048863;28;19916;-65
2021/10/07 13:13:57;;;;;;;;;;;16.60;99.90;;;;;;5047519;28;20361;-65
2021/10/07 13:16:23;;;;;;;;;;;16.80;99.90;;;;;;5049339;28;19954;-65
2021/10/07 13:18:49;;;;;;;;;;;17.00;99.90;;;;;;5048251;28;19920;-65
2021/10/07 13:21:14;;;;;;;;;;;17.20;99.90;;;;;;5048703;28;19916;-65
2021/10/07 13:23:40;;;;;;;;;;;17.10;99.90;;;;;;5047786;28;20401;-65
2021/10/07 13:26:08;;;;;;;;;;;16.80;99.90;;;;;;5048938;28;19969;-65
2021/10/07 13:28:34;;;;;;;;;;;16.50;99.90;;;;;;5058492;28;19978;-64
2021/10/07 13:30:59;;;;;;;;;;;16.20;99.90;;;;;;5068401;28;19916;-65
2021/10/07 13:33:25;;;;;;;;;;;15.90;99.90;;;;;;5067459;28;19920;-65
2021/10/07 13:35:51;;;;;;;;;;;15.70;99.90;;;;;;5068952;28;19915;-65
2021/10/07 13:38:21;;;;;;;;;;;15.50;99.90;;;;;;5052041;28;19917;-65
2021/10/07 13:40:51;;;;;;;;;;;15.30;99.90;;;;;;5050527;28;20384;-64
2021/10/07 13:43:16;;;;;;;;;;;15.30;99.90;;;;;;5058823;28;19916;-65
2021/10/07 13:45:42;;;;;;;;;;;15.30;99.90;;;;;;5068058;28;19920;-63
2021/10/07 13:48:08;;;;;;;;;;;15.10;99.90;;;;;;5067554;28;20023;-65
2021/10/07 13:50:33;;;;;;;;;;;15.00;99.90;;;;;;5071539;28;20399;-64
2021/10/07 13:52:59;;;;;;;;;;;14.90;99.90;;;;;;5071432;28;19909;-65
2021/10/07 13:55:26;;;;;;;;;;;14.80;99.90;;;;;;5072382;28;19908;-65
2021/10/07 13:57:54;;;;;;;;;;;14.90;99.90;;;;;;5072098;28;19935;-65
2021/10/07 14:00:20;;;;;;;;;;;15.00;99.90;;;;;;5072243;28;20426;-65
2021/10/07 14:02:46;;;;;;;;;;;15.20;99.90;;;;;;5071324;28;19920;-65
2021/10/07 14:05:12;;;;;;;;;;;15.40;99.90;;;;;;5072546;28;19985;-65
2021/10/07 14:07:37;;;;;;;;;;;15.30;99.90;;;;;;5070978;28;20354;-65
2021/10/07 14:10:03;;;;;;;;;;;15.10;99.90;;;;;;5072035;28;19909;-64
2021/10/07 14:12:29;;;;;;;;;;;15.10;99.90;;;;;;5071023;28;19979;-63
2021/10/07 14:14:54;;;;;;;;;;;15.00;99.90;;;;;;5071785;28;20396;-65
2021/10/07 14:17:20;;;;;;;;;;;15.00;99.90;;;;;;5071952;28;19936;-65
2021/10/07 14:19:45;;;;;;;;;;;14.80;99.90;;;;;;5071629;28;19924;-65
2021/10/07 14:22:11;;;;;;;;;;;14.60;99.90;;;;;;5070755;28;19995;-61
2021/10/07 14:24:36;;;;;;;;;;;14.50;99.90;;;;;;5060882;28;20651;-63